Time;durP1;ratioP1;P1;durP2;ratioP2;P2;SDS_P1;SDS_P2;PMS_P1;PMS_P2;Temp;Humidity;BMP_temperature;BMP_pressure;BME280_temperature;BME280_humidity;BME280_pressure;Samples;Min_cycle;Max_cycle;Signal;HPM_P1;HPM_P2
2023/10/29 00:00:19;;;;;;;0.80;0.40;;;;;;;-143.84;45.87;45045.25;5110386;28;20439;-56
2023/10/29 00:02:46;;;;;;;0.80;0.40;;;;;;;-143.84;45.75;45045.25;5110700;28;20488;-56
2023/10/29 00:05:13;;;;;;;0.80;0.50;;;;;;;-143.84;45.83;45087.16;5110779;28;20447;-56
2023/10/29 00:07:40;;;;;;;0.80;0.50;;;;;;;-143.84;45.71;45045.25;5110734;28;20442;-56
2023/10/29 00:10:08;;;;;;;0.97;0.50;;;;;;;-143.84;45.65;45039.53;5110568;28;20858;-56
2023/10/29 00:12:37;;;;;;;0.93;0.43;;;;;;;-143.84;45.87;45070.00;5109902;28;20439;-56
2023/10/29 00:15:05;;;;;;;0.90;0.60;;;;;;;-143.84;45.67;45071.91;5109769;28;20504;-56
2023/10/29 00:17:33;;;;;;;0.80;0.40;;;;;;;-143.84;45.72;45058.59;5110042;28;20496;-56
2023/10/29 00:20:00;;;;;;;0.80;0.50;;;;;;;-143.84;45.64;45052.88;5110403;28;20428;-56
2023/10/29 00:22:27;;;;;;;0.90;0.50;;;;;;;-143.84;45.67;45031.94;5110328;28;20482;-56
2023/10/29 00:24:55;;;;;;;0.80;0.40;;;;;;;-143.84;45.78;45045.25;5110593;28;20439;-56
2023/10/29 00:27:22;;;;;;;0.90;0.40;;;;;;;-143.84;45.87;45077.63;5110463;28;20439;-56
2023/10/29 00:29:50;;;;;;;0.80;0.40;;;;;;;-143.84;46.04;45056.69;5110199;28;20435;-56
2023/10/29 00:32:18;;;;;;;0.80;0.40;;;;;;;-143.84;46.07;45070.00;5110186;28;20439;-56
2023/10/29 00:34:47;;;;;;;0.80;0.30;;;;;;;-143.84;46.55;45064.31;5109969;28;20548;-56
2023/10/29 00:37:14;;;;;;;1.00;0.73;;;;;;;-143.84;46.35;45056.69;5110023;28;20443;-56
2023/10/29 00:39:41;;;;;;;0.80;0.50;;;;;;;-143.84;46.39;45075.72;5110150;28;20442;-56
2023/10/29 00:42:11;;;;;;;0.80;0.40;;;;;;;-143.84;46.41;45054.78;5109752;28;20470;-56
2023/10/29 00:44:38;;;;;;;0.80;0.60;;;;;;;-143.84;46.46;45049.06;5109568;28;20446;-56
2023/10/29 00:47:07;;;;;;;1.40;0.53;;;;;;;-143.84;46.53;45041.44;5109967;28;20438;-56
2023/10/29 00:49:36;;;;;;;0.80;0.57;;;;;;;-143.84;46.61;45064.31;5109787;28;20944;-56
2023/10/29 00:52:03;;;;;;;1.20;0.80;;;;;;;-143.84;46.61;45058.59;5109645;28;20480;-56
2023/10/29 00:54:31;;;;;;;0.80;0.40;;;;;;;-143.84;46.73;45050.97;5109721;28;20438;-56
2023/10/29 00:56:59;;;;;;;0.80;0.50;;;;;;;-143.84;46.86;45071.91;5109616;28;20487;-56
2023/10/29 00:59:28;;;;;;;0.80;0.50;;;;;;;-143.84;46.52;45070.00;5119878;27;20450;-56
2023/10/29 01:01:56;;;;;;;0.90;0.60;;;;;;;-143.84;46.46;45077.63;5126295;27;20478;-56
2023/10/29 01:04:24;;;;;;;1.67;0.60;;;;;;;-143.84;46.50;45062.41;5129879;27;20469;-56
2023/10/29 01:06:52;;;;;;;0.80;0.30;;;;;;;-143.84;46.38;45075.72;5129667;27;20506;-56
2023/10/29 01:09:19;;;;;;;0.80;0.40;;;;;;;-143.84;46.33;45056.69;5129952;27;20453;-56
2023/10/29 01:11:46;;;;;;;0.80;0.40;;;;;;;-143.84;46.37;45041.44;5129616;27;20450;-56
2023/10/29 01:14:14;;;;;;;0.80;0.40;;;;;;;-143.84;46.58;45056.69;5129207;27;20444;-56
2023/10/29 01:16:41;;;;;;;0.80;0.40;;;;;;;-143.84;46.55;45089.06;5129150;27;20685;-56
2023/10/29 01:19:08;;;;;;;1.40;0.57;;;;;;;-143.84;46.43;45073.81;5129335;27;20437;-56
2023/10/29 01:21:37;;;;;;;0.87;0.40;;;;;;;-143.84;46.36;45039.53;5129600;27;20825;-56
2023/10/29 01:24:04;;;;;;;0.80;0.40;;;;;;;-143.84;46.35;45056.69;5130008;27;20434;-56
2023/10/29 01:26:32;;;;;;;1.20;0.67;;;;;;;-143.84;46.72;45083.34;5129662;27;21122;-56
2023/10/29 01:28:59;;;;;;;0.90;0.50;;;;;;;-143.84;46.43;45058.59;5129820;27;20450;-56
2023/10/29 01:31:26;;;;;;;0.90;0.50;;;;;;;-143.84;46.76;45083.34;5129846;27;20536;-57
2023/10/29 01:33:53;;;;;;;0.80;0.40;;;;;;;-143.84;46.42;45056.69;5129331;27;20438;-56
2023/10/29 01:36:20;;;;;;;1.00;0.73;;;;;;;-143.84;46.44;45062.41;5129698;27;20434;-56
2023/10/29 01:38:49;;;;;;;0.80;0.40;;;;;;;-143.84;46.22;45077.63;5129457;27;20434;-56
2023/10/29 01:41:16;;;;;;;0.80;0.40;;;;;;;-143.84;45.98;45068.13;5129522;27;20497;-56
2023/10/29 01:43:43;;;;;;;1.53;0.60;;;;;;;-143.84;45.88;45070.00;5129444;27;21013;-56
2023/10/29 01:46:10;;;;;;;0.80;0.40;;;;;;;-143.84;45.79;45056.69;5128831;27;20457;-56
2023/10/29 01:48:37;;;;;;;0.90;0.57;;;;;;;-143.84;45.75;45052.88;5129445;27;20519;-56
2023/10/29 01:51:07;;;;;;;0.80;0.40;;;;;;;-143.84;45.92;45050.97;5129311;28;20442;-56
2023/10/29 01:53:34;;;;;;;0.80;0.40;;;;;;;-143.84;45.89;45077.63;5129049;27;20483;-56
2023/10/29 01:56:07;;;;;;;1.00;0.60;;;;;;;-143.84;45.45;45081.44;5128859;28;20442;-56
2023/10/29 01:58:34;;;;;;;0.90;0.50;;;;;;;-143.84;45.41;45056.69;5129237;28;20442;-56
2023/10/29 02:01:01;;;;;;;0.90;0.70;;;;;;;-143.84;45.45;45070.00;5129359;28;20487;-56
2023/10/29 02:03:28;;;;;;;1.87;1.77;;;;;;;-143.84;45.23;45068.13;5129360;28;21128;-56
2023/10/29 02:05:55;;;;;;;0.80;0.40;;;;;;;-143.84;45.32;45054.78;5129205;28;20454;-56
2023/10/29 02:08:22;;;;;;;0.80;0.50;;;;;;;-143.84;45.05;45033.84;5129361;28;20491;-56
2023/10/29 02:10:50;;;;;;;1.10;0.50;;;;;;;-143.84;45.07;45064.31;5128819;28;20438;-56
2023/10/29 02:13:18;;;;;;;1.00;0.73;;;;;;;-143.84;44.89;45047.16;5128992;28;20430;-56
2023/10/29 02:15:45;;;;;;;0.80;0.40;;;;;;;-143.84;44.64;45075.72;5127318;28;20931;-56
2023/10/29 02:18:12;;;;;;;0.80;0.40;;;;;;;-143.84;44.55;45064.31;5108111;28;20439;-56
2023/10/29 02:20:39;;;;;;;0.80;0.40;;;;;;;-143.84;44.56;45079.53;5108410;28;20442;-56
2023/10/29 02:23:08;;;;;;;0.80;0.50;;;;;;;-143.84;44.42;45071.91;5108825;28;20984;-56
2023/10/29 02:25:35;;;;;;;0.80;0.40;;;;;;;-143.84;44.15;45056.69;5108156;28;20861;-56
2023/10/29 02:28:02;;;;;;;1.03;0.70;;;;;;;-143.84;44.11;45062.41;5108613;28;20435;-56
2023/10/29 02:30:29;;;;;;;0.80;0.50;;;;;;;-143.84;44.02;45064.31;5108655;28;20519;-56
2023/10/29 02:32:56;;;;;;;0.80;0.40;;;;;;;-143.84;44.13;45060.50;5108127;28;20500;-56
2023/10/29 02:35:24;;;;;;;0.80;0.40;;;;;;;-143.84;43.93;45047.16;5108068;28;20474;-56
2023/10/29 02:37:51;;;;;;;0.80;0.40;;;;;;;-143.84;43.70;45071.91;5108534;28;20435;-56
2023/10/29 02:40:20;;;;;;;0.80;0.40;;;;;;;-143.84;43.32;45056.69;5107944;28;20443;-56
2023/10/29 02:42:47;;;;;;;0.80;0.40;;;;;;;-143.84;43.45;45033.84;5107906;28;20840;-56
2023/10/29 02:45:14;;;;;;;0.90;0.60;;;;;;;-143.84;43.20;45052.88;5108267;28;20443;-56
2023/10/29 02:47:41;;;;;;;0.80;0.40;;;;;;;-143.84;42.91;45068.13;5108061;28;20446;-56
2023/10/29 02:50:09;;;;;;;0.80;0.40;;;;;;;-143.84;42.62;45068.13;5108648;28;20439;-56
2023/10/29 02:52:36;;;;;;;1.10;0.67;;;;;;;-143.84;42.85;45056.69;5108226;28;20534;-56
2023/10/29 02:55:04;;;;;;;0.80;0.30;;;;;;;-143.84;42.61;45050.97;5108050;28;20631;-56
2023/10/29 02:57:32;;;;;;;1.07;0.60;;;;;;;-143.84;42.76;45064.31;5108221;28;20442;-56
2023/10/29 03:00:01;;;;;;;0.80;0.40;;;;;;;-143.84;42.50;45066.22;5108256;28;20450;-56
2023/10/29 03:02:28;;;;;;;0.80;0.40;;;;;;;-143.84;42.41;45062.41;5108302;28;20520;-56
2023/10/29 03:04:55;;;;;;;0.80;0.40;;;;;;;-143.84;42.45;45041.44;5108230;28;20439;-56
2023/10/29 03:07:22;;;;;;;0.80;0.47;;;;;;;-143.84;42.37;45081.44;5110501;28;21013;-56
2023/10/29 03:09:49;;;;;;;1.30;0.73;;;;;;;-143.84;42.37;45054.78;5111732;28;20450;-56
2023/10/29 03:12:16;;;;;;;0.90;0.50;;;;;;;-143.84;42.51;45062.41;5111611;28;20550;-56
2023/10/29 03:14:45;;;;;;;0.80;0.50;;;;;;;-143.84;42.43;45066.22;5111516;28;20451;-56
2023/10/29 03:17:12;;;;;;;0.80;0.50;;;;;;;-143.84;42.30;45075.72;5123474;27;20514;-56
2023/10/29 03:19:39;;;;;;;0.80;0.40;;;;;;;-143.84;42.35;45050.97;5131635;27;20562;-56
2023/10/29 03:22:06;;;;;;;0.80;0.30;;;;;;;-143.84;42.36;45060.50;5131788;27;20507;-56
2023/10/29 03:24:33;;;;;;;0.80;0.60;;;;;;;-143.84;42.19;45066.22;5132060;27;20446;-56
2023/10/29 03:27:00;;;;;;;0.80;0.40;;;;;;;-143.84;41.92;45073.81;5132019;27;20434;-56
2023/10/29 03:29:27;;;;;;;0.80;0.40;;;;;;;-143.84;42.07;45050.97;5131798;27;20441;-56
2023/10/29 03:31:56;;;;;;;0.80;0.43;;;;;;;-143.84;42.19;45071.91;5131885;27;20422;-56
2023/10/29 03:34:23;;;;;;;0.80;0.40;;;;;;;-143.84;42.08;45058.59;5131600;27;20542;-56
2023/10/29 03:36:50;;;;;;;1.50;0.60;;;;;;;-143.84;41.80;45087.16;5131623;27;20438;-56
2023/10/29 03:39:17;;;;;;;0.80;0.40;;;;;;;-143.84;41.61;45010.97;5131758;27;20442;-56
2023/10/29 03:41:44;;;;;;;0.80;0.40;;;;;;;-143.84;41.57;45085.25;5131865;27;20477;-56
2023/10/29 03:44:11;;;;;;;0.80;0.40;;;;;;;-143.84;41.59;45079.53;5131438;27;20446;-56
2023/10/29 03:46:38;;;;;;;0.80;0.40;;;;;;;-143.84;41.59;45047.16;5131379;27;20498;-56
2023/10/29 03:49:07;;;;;;;1.13;0.60;;;;;;;-143.84;41.63;45058.59;5131659;27;20450;-56
2023/10/29 03:51:34;;;;;;;0.80;0.50;;;;;;;-143.84;41.71;45037.66;5131243;27;20495;-56
2023/10/29 03:54:01;;;;;;;0.80;0.40;;;;;;;-143.84;41.69;45056.69;5131616;27;20520;-56
2023/10/29 03:56:28;;;;;;;0.80;0.40;;;;;;;-143.84;41.75;45075.72;5131505;27;20434;-56
2023/10/29 03:58:55;;;;;;;0.80;0.50;;;;;;;-143.84;41.68;45064.31;5131639;27;20446;-56
2023/10/29 04:01:22;;;;;;;0.80;0.40;;;;;;;-143.84;41.89;45070.00;5131469;27;20430;-56
2023/10/29 04:03:50;;;;;;;0.80;0.40;;;;;;;-143.84;41.89;45047.16;5131140;27;20473;-56
2023/10/29 04:06:18;;;;;;;0.80;0.40;;;;;;;-143.84;42.04;45079.53;5131019;27;20446;-56
2023/10/29 04:08:45;;;;;;;0.90;0.60;;;;;;;-143.84;41.81;45052.88;5131050;27;20939;-56
2023/10/29 04:11:12;;;;;;;0.80;0.40;;;;;;;-143.84;41.91;45089.06;5130957;27;20460;-56
2023/10/29 04:13:39;;;;;;;0.90;0.60;;;;;;;-143.84;42.02;45047.16;5131192;27;20486;-56
2023/10/29 04:16:07;;;;;;;0.80;0.50;;;;;;;-143.84;41.91;45071.91;5130988;27;20446;-56
2023/10/29 04:18:34;;;;;;;0.80;0.40;;;;;;;-143.84;42.05;45041.44;5130136;27;20446;-56
2023/10/29 04:21:03;;;;;;;0.93;0.70;;;;;;;-143.84;42.20;45066.22;5130357;27;20430;-56
2023/10/29 04:23:32;;;;;;;0.80;0.40;;;;;;;-143.84;42.24;45050.97;5130505;27;20564;-56
2023/10/29 04:25:59;;;;;;;0.80;0.40;;;;;;;-143.84;42.33;45050.97;5131013;27;20845;-56
2023/10/29 04:28:26;;;;;;;0.80;0.40;;;;;;;-143.84;42.28;45024.31;5130921;27;20430;-56
2023/10/29 04:30:54;;;;;;;0.80;0.40;;;;;;;-143.84;42.54;45058.59;5130762;27;20441;-56
2023/10/29 04:33:22;;;;;;;0.80;0.40;;;;;;;-143.84;42.60;45045.25;5130670;27;20486;-56
2023/10/29 04:35:49;;;;;;;1.20;0.50;;;;;;;-143.84;42.48;45089.06;5130358;27;20506;-56
2023/10/29 04:38:16;;;;;;;0.80;0.40;;;;;;;-143.84;42.29;45054.78;5130320;27;20442;-56
2023/10/29 04:40:45;;;;;;;0.80;0.40;;;;;;;-143.84;42.39;45071.91;5130468;27;20426;-56
2023/10/29 04:43:12;;;;;;;0.80;0.40;;;;;;;-143.84;42.41;45064.31;5130536;27;20990;-56
2023/10/29 04:45:40;;;;;;;0.80;0.40;;;;;;;-143.84;42.42;45064.31;5130488;27;20772;-56
2023/10/29 04:48:07;;;;;;;1.23;0.60;;;;;;;-143.84;42.77;45041.44;5110204;28;20443;-56
2023/10/29 04:50:34;;;;;;;0.80;0.40;;;;;;;-143.84;42.78;45041.44;5110018;28;20451;-56
2023/10/29 04:53:02;;;;;;;1.73;0.50;;;;;;;-143.84;42.96;45066.22;5109959;28;20435;-56
2023/10/29 04:55:29;;;;;;;0.80;0.40;;;;;;;-143.84;43.25;45060.50;5109840;28;20440;-56
2023/10/29 04:57:58;;;;;;;0.80;0.57;;;;;;;-143.84;43.18;45073.81;5109663;28;20443;-56
2023/10/29 05:00:25;;;;;;;1.00;0.53;;;;;;;-143.84;43.42;45039.53;5109591;28;20439;-56
2023/10/29 05:02:53;;;;;;;0.87;0.43;;;;;;;-143.84;43.62;45070.00;5109352;28;20478;-56
2023/10/29 05:05:20;;;;;;;0.80;0.40;;;;;;;-143.84;43.52;45052.88;5109536;28;20435;-56
2023/10/29 05:07:47;;;;;;;0.80;0.40;;;;;;;-143.84;43.62;45045.25;5109366;28;20447;-56
2023/10/29 05:10:14;;;;;;;1.10;0.50;;;;;;;-143.84;43.96;45041.44;5109717;28;20431;-56
2023/10/29 05:12:42;;;;;;;0.80;0.40;;;;;;;-143.84;44.05;45045.25;5115075;27;20450;-56
2023/10/29 05:15:13;;;;;;;0.80;0.47;;;;;;;-143.84;44.10;45079.53;5129693;27;20862;-56
2023/10/29 05:17:41;;;;;;;0.80;0.47;;;;;;;-143.84;44.37;45071.91;5129812;27;20439;-56
2023/10/29 05:20:10;;;;;;;0.83;0.40;;;;;;;-143.84;44.48;45035.75;5129078;27;20532;-56
2023/10/29 05:22:38;;;;;;;0.80;0.40;;;;;;;-143.84;44.50;45056.69;5128801;27;20502;-53
2023/10/29 05:25:08;;;;;;;0.80;0.33;;;;;;;-143.84;44.61;45033.84;5129087;27;20846;-61
2023/10/29 05:27:35;;;;;;;1.00;0.57;;;;;;;-143.84;44.66;45054.78;5128641;27;20814;-61
2023/10/29 05:30:02;;;;;;;1.20;0.50;;;;;;;-143.84;44.56;45068.13;5112547;27;20458;-61
2023/10/29 05:32:32;;;;;;;0.90;0.47;;;;;;;-143.84;44.38;45039.53;5108638;28;20960;-62
2023/10/29 05:34:59;;;;;;;0.80;0.40;;;;;;;-143.84;44.36;45062.41;5108359;28;20866;-61
2023/10/29 05:37:26;;;;;;;1.17;0.57;;;;;;;-143.84;44.45;45039.53;5109229;28;20853;-61
2023/10/29 05:39:53;;;;;;;0.80;0.40;;;;;;;-143.84;44.70;45043.34;5108260;28;20445;-61
2023/10/29 05:42:20;;;;;;;0.80;0.37;;;;;;;-143.84;44.56;45039.53;5109094;28;20491;-61
2023/10/29 05:44:47;;;;;;;0.80;0.60;;;;;;;-143.84;44.68;45035.75;5109125;28;20492;-53
2023/10/29 05:47:14;;;;;;;0.80;0.50;;;;;;;-143.84;44.92;45052.88;5108881;28;20457;-53
2023/10/29 05:49:43;;;;;;;0.80;0.40;;;;;;;-143.84;44.52;45052.88;5108913;28;20443;-53
2023/10/29 05:52:10;;;;;;;0.80;0.40;;;;;;;-143.84;44.41;45071.91;5109153;28;20449;-53
2023/10/29 05:54:37;;;;;;;0.80;0.50;;;;;;;-143.84;44.18;45033.84;5109219;28;21216;-53
2023/10/29 05:57:05;;;;;;;0.80;0.40;;;;;;;-143.84;44.09;45064.31;5109116;28;20443;-53
2023/10/29 05:59:32;;;;;;;0.80;0.40;;;;;;;-143.84;43.68;45049.06;5108853;28;20438;-53
2023/10/29 06:01:59;;;;;;;0.80;0.40;;;;;;;-143.84;43.46;45041.44;5109090;28;20438;-53
2023/10/29 06:04:26;;;;;;;0.90;0.50;;;;;;;-143.84;42.93;45047.16;5109059;28;20512;-54
2023/10/29 06:06:55;;;;;;;0.97;0.57;;;;;;;-143.84;42.65;45031.94;5108769;28;20435;-53
2023/10/29 06:09:22;;;;;;;0.80;0.40;;;;;;;-143.84;42.16;45056.69;5108752;28;20955;-53
2023/10/29 06:11:49;;;;;;;1.10;0.47;;;;;;;-143.84;41.88;45031.94;5108650;28;20439;-53
2023/10/29 06:14:16;;;;;;;0.80;0.50;;;;;;;-143.84;41.53;45037.66;5108573;28;20443;-54
2023/10/29 06:16:44;;;;;;;0.80;0.40;;;;;;;-143.84;41.26;45031.94;5108776;28;20443;-53
2023/10/29 06:19:11;;;;;;;1.00;0.40;;;;;;;-143.84;41.62;45031.94;5108570;28;20435;-54
2023/10/29 06:21:38;;;;;;;0.80;0.47;;;;;;;-143.84;40.77;45033.84;5108567;28;20451;-53
2023/10/29 06:24:08;;;;;;;0.90;0.40;;;;;;;-143.84;40.22;45031.94;5108367;28;21175;-53
2023/10/29 06:26:35;;;;;;;0.80;0.40;;;;;;;-143.84;40.40;45039.53;5108518;28;20469;-53
2023/10/29 06:29:02;;;;;;;0.80;0.40;;;;;;;-143.84;39.86;45018.59;5108654;28;20433;-53
2023/10/29 06:31:31;;;;;;;0.87;0.47;;;;;;;-143.84;39.70;45037.66;5108627;28;20783;-54
2023/10/29 06:33:58;;;;;;;2.00;0.50;;;;;;;-143.84;39.39;45039.53;5108158;28;20454;-53
2023/10/29 06:36:25;;;;;;;0.80;0.50;;;;;;;-143.84;38.83;45012.88;5108500;28;20495;-53
2023/10/29 06:38:52;;;;;;;1.43;0.60;;;;;;;-143.84;39.03;44980.53;5108303;28;20446;-53
2023/10/29 06:41:21;;;;;;;0.80;0.40;;;;;;;-143.84;38.74;45031.94;5110672;28;20442;-53
2023/10/29 06:43:48;;;;;;;0.80;0.50;;;;;;;-143.84;39.47;45005.28;5112486;28;20539;-54
2023/10/29 06:46:16;;;;;;;1.00;0.60;;;;;;;-143.84;39.30;44974.81;5112155;28;20534;-53
2023/10/29 06:48:43;;;;;;;1.00;0.60;;;;;;;-143.84;37.87;44980.53;5112352;28;20522;-53
2023/10/29 06:51:10;;;;;;;0.90;0.50;;;;;;;-143.84;37.84;45026.22;5112102;28;20449;-53
2023/10/29 06:53:37;;;;;;;0.80;0.40;;;;;;;-143.84;38.09;44988.13;5111848;28;20500;-53
2023/10/29 06:56:06;;;;;;;0.80;0.40;;;;;;;-143.84;39.00;45005.28;5112098;28;20507;-53
2023/10/29 06:58:34;;;;;;;1.00;0.60;;;;;;;-143.84;37.71;44995.75;5112009;28;20451;-53
2023/10/29 07:01:05;;;;;;;0.90;0.50;;;;;;;-143.84;36.90;45014.78;5111409;28;20484;-53
2023/10/29 07:03:33;;;;;;;0.80;0.40;;;;;;;-143.84;37.10;44995.75;5111286;28;20479;-53
2023/10/29 07:06:07;;;;;;;1.07;0.60;;;;;;;-143.84;37.18;44991.94;5111774;28;20492;-53
2023/10/29 07:08:34;;;;;;;0.80;0.40;;;;;;;-143.84;36.79;44991.94;5112017;28;20443;-53
2023/10/29 07:11:02;;;;;;;0.80;0.50;;;;;;;-143.84;36.08;44980.53;5111483;28;21046;-53
2023/10/29 07:13:30;;;;;;;0.80;0.40;;;;;;;-143.84;36.19;44988.13;5110370;28;20450;-53
2023/10/29 07:16:00;;;;;;;0.80;0.40;;;;;;;-143.84;35.14;44959.56;5111282;28;20500;-55
2023/10/29 07:18:27;;;;;;;0.90;0.53;;;;;;;-143.84;35.39;44988.13;5111245;28;20508;-55
2023/10/29 07:20:55;;;;;;;1.00;0.50;;;;;;;-143.84;35.47;44982.41;5111433;28;20465;-55
2023/10/29 07:23:22;;;;;;;1.10;0.57;;;;;;;-143.84;34.42;44953.88;5111152;28;20555;-55
2023/10/29 07:25:50;;;;;;;0.80;0.40;;;;;;;-143.84;34.73;44982.41;5111438;28;20523;-55
2023/10/29 07:28:17;;;;;;;0.80;0.50;;;;;;;-143.84;34.25;44984.31;5111176;28;20434;-55
2023/10/29 07:30:45;;;;;;;0.80;0.40;;;;;;;-143.84;33.78;44988.13;5111366;28;20442;-55
2023/10/29 07:33:13;;;;;;;0.80;0.40;;;;;;;-143.84;32.72;44953.88;5111143;28;20937;-55
2023/10/29 07:35:41;;;;;;;0.90;0.50;;;;;;;-143.84;33.09;44957.66;5111180;28;20524;-55
2023/10/29 07:38:08;;;;;;;0.80;0.30;;;;;;;-143.84;33.02;44957.66;5111312;28;20431;-55
2023/10/29 07:40:36;;;;;;;0.90;0.50;;;;;;;-143.84;32.52;44967.19;5111327;28;20438;-55
2023/10/29 07:43:04;;;;;;;0.80;0.43;;;;;;;-143.84;33.09;44957.66;5111025;28;20479;-55
2023/10/29 07:45:32;;;;;;;0.80;0.50;;;;;;;-143.84;33.11;44961.47;5111380;28;20434;-55
2023/10/29 07:47:59;;;;;;;0.80;0.40;;;;;;;-143.84;33.00;44961.47;5111286;28;20442;-55
2023/10/29 07:50:28;;;;;;;2.80;1.27;;;;;;;-143.84;33.42;44965.28;5111020;28;20530;-55
2023/10/29 07:52:55;;;;;;;1.83;0.87;;;;;;;-143.84;33.86;44931.00;5110586;28;21372;-55
2023/10/29 07:55:22;;;;;;;1.47;0.53;;;;;;;-143.84;33.25;44942.44;5111110;28;20438;-55
2023/10/29 07:57:49;;;;;;;1.10;0.70;;;;;;;-143.84;33.61;44948.16;5110791;28;21197;-55
2023/10/29 08:00:17;;;;;;;0.87;0.50;;;;;;;-143.84;33.06;44919.59;5111139;28;20454;-55
2023/10/29 08:02:45;;;;;;;0.90;0.50;;;;;;;-143.84;32.89;44944.34;5111044;28;20435;-55
2023/10/29 08:05:12;;;;;;;0.80;0.50;;;;;;;-143.84;32.80;44940.53;5110998;28;20443;-55
2023/10/29 08:07:41;;;;;;;0.90;0.40;;;;;;;-143.84;32.58;44984.31;5110746;28;20442;-54
2023/10/29 08:10:09;;;;;;;0.90;0.60;;;;;;;-143.84;32.46;44942.44;5127164;27;20442;-55
2023/10/29 08:12:36;;;;;;;0.90;0.63;;;;;;;-143.84;33.02;44921.50;5130915;27;20438;-55
2023/10/29 08:15:04;;;;;;;0.90;0.63;;;;;;;-143.84;32.27;44927.19;5131040;27;20491;-55
2023/10/29 08:17:31;;;;;;;1.20;0.80;;;;;;;-143.84;32.31;44931.00;5131243;27;20437;-55
2023/10/29 08:19:59;;;;;;;0.80;0.53;;;;;;;-143.84;32.21;44965.28;5131159;27;20495;-55
2023/10/29 08:22:26;;;;;;;1.30;0.83;;;;;;;-143.84;31.73;44971.00;5131143;27;20864;-55
2023/10/29 08:24:54;;;;;;;1.23;0.50;;;;;;;-143.84;31.89;44953.88;5131048;27;20486;-55
2023/10/29 08:27:21;;;;;;;0.80;0.40;;;;;;;-143.84;31.95;44925.31;5130794;27;20442;-56
2023/10/29 08:29:49;;;;;;;0.80;0.40;;;;;;;-143.84;31.95;44925.31;5131077;27;20434;-56
2023/10/29 08:32:17;;;;;;;0.90;0.40;;;;;;;-143.84;31.60;44965.28;5130733;27;20847;-56
2023/10/29 08:34:44;;;;;;;0.90;0.60;;;;;;;-143.84;31.58;44965.28;5129870;27;20490;-56
2023/10/29 08:37:11;;;;;;;0.80;0.30;;;;;;;-143.84;31.56;44919.59;5129988;27;20426;-56
2023/10/29 08:39:39;;;;;;;0.90;0.40;;;;;;;-143.84;31.26;44950.06;5130140;27;20430;-56
2023/10/29 08:42:07;;;;;;;0.80;0.37;;;;;;;-143.84;31.54;44944.34;5130407;27;20457;-56
2023/10/29 08:44:34;;;;;;;0.90;0.50;;;;;;;-143.84;32.06;44932.91;5130701;27;20469;-56
2023/10/29 08:47:01;;;;;;;1.60;0.60;;;;;;;-143.84;31.91;44950.06;5130440;27;20499;-56
2023/10/29 08:49:29;;;;;;;0.80;0.40;;;;;;;-143.84;31.71;44972.91;5130428;27;20499;-56
2023/10/29 08:51:56;;;;;;;0.80;0.40;;;;;;;-143.84;32.28;44969.09;5130525;27;21232;-56
2023/10/29 08:54:23;;;;;;;0.80;0.40;;;;;;;-143.84;32.78;44963.38;5130280;27;20438;-56
2023/10/29 08:56:50;;;;;;;0.80;0.40;;;;;;;-143.84;32.33;44948.16;5130355;27;20442;-56
2023/10/29 08:59:19;;;;;;;0.80;0.40;;;;;;;-143.84;32.97;44959.56;5119522;27;20848;-56
2023/10/29 09:01:47;;;;;;;0.80;0.40;;;;;;;-143.84;31.91;44965.28;5109637;28;20439;-56
2023/10/29 09:04:14;;;;;;;0.90;0.50;;;;;;;-143.84;31.26;44963.38;5108541;28;20482;-56
2023/10/29 09:06:43;;;;;;;1.00;0.53;;;;;;;-143.84;31.86;44953.88;5109556;28;20467;-56
2023/10/29 09:09:11;;;;;;;0.83;0.37;;;;;;;-143.84;31.46;44951.97;5109820;28;20447;-61
2023/10/29 09:11:39;;;;;;;0.80;0.40;;;;;;;-143.84;31.46;44980.53;5109816;28;20490;-61
2023/10/29 09:14:07;;;;;;;1.00;0.70;;;;;;;-143.84;32.06;44946.25;5109890;28;20447;-61
2023/10/29 09:16:36;;;;;;;1.53;0.70;;;;;;;-143.84;31.95;44969.09;5109924;28;20435;-61
2023/10/29 09:19:03;;;;;;;0.80;0.40;;;;;;;-143.84;31.86;44948.16;5109969;28;20435;-61
2023/10/29 09:21:30;;;;;;;0.90;0.40;;;;;;;-143.84;31.38;44944.34;5109287;28;21020;-61
2023/10/29 09:23:57;;;;;;;0.80;0.40;;;;;;;-143.84;31.99;44950.06;5109282;28;20480;-55
2023/10/29 09:26:24;;;;;;;0.80;0.40;;;;;;;-143.84;32.43;44950.06;5109291;28;20933;-55
2023/10/29 09:28:52;;;;;;;0.87;0.50;;;;;;;-143.84;31.96;44965.28;5109016;28;20439;-55
2023/10/29 09:31:19;;;;;;;2.37;0.60;;;;;;;-143.84;32.00;44936.72;5109108;28;20454;-55
2023/10/29 09:33:48;;;;;;;0.90;0.50;;;;;;;-143.84;31.73;44940.53;5108832;28;20508;-56
2023/10/29 09:36:16;;;;;;;0.87;0.40;;;;;;;-143.84;32.15;44948.16;5088641;28;20463;-55
2023/10/29 09:38:43;;;;;;;1.00;0.90;;;;;;;-143.84;31.78;44942.44;5088687;28;20479;-55
2023/10/29 09:41:10;;;;;;;0.90;0.43;;;;;;;-143.84;31.56;44978.63;5088396;28;20498;-55
2023/10/29 09:43:41;;;;;;;0.80;0.40;;;;;;;-143.84;31.74;44950.06;5088463;28;20479;-55
2023/10/29 09:46:10;;;;;;;1.10;0.50;;;;;;;-143.84;31.63;44976.72;5088663;28;20447;-55
2023/10/29 09:48:38;;;;;;;0.80;0.40;;;;;;;-143.84;31.55;44934.81;5088556;28;20501;-54
2023/10/29 09:51:07;;;;;;;0.80;0.40;;;;;;;-143.84;31.55;44967.19;5088971;28;20443;-54
2023/10/29 09:53:36;;;;;;;0.80;0.40;;;;;;;-143.84;32.92;44950.06;5088382;28;20949;-54
2023/10/29 09:56:03;;;;;;;1.83;0.87;;;;;;;-143.84;32.52;44974.81;5088330;28;20472;-54
2023/10/29 09:58:30;;;;;;;0.80;0.40;;;;;;;-143.84;31.83;44961.47;5087920;28;20432;-54
2023/10/29 10:00:58;;;;;;;1.10;0.50;;;;;;;-143.84;32.24;44942.44;5088024;28;20436;-54
2023/10/29 10:03:27;;;;;;;0.80;0.43;;;;;;;-143.84;32.94;44965.28;5087846;28;20454;-54
2023/10/29 10:05:55;;;;;;;1.00;0.50;;;;;;;-143.84;32.52;44957.66;5088487;28;20435;-54
2023/10/29 10:08:27;;;;;;;0.90;0.40;;;;;;;-143.84;32.35;44965.28;5088203;28;20475;-54
2023/10/29 10:10:54;;;;;;;0.80;0.40;;;;;;;-143.84;32.65;44991.94;5088450;28;20444;-54
2023/10/29 10:13:36;;;;;;;0.80;0.43;;;;;;;-143.84;31.78;44959.56;5088085;28;20485;-54
2023/10/29 10:16:08;;;;;;;0.90;0.50;;;;;;;-143.84;31.80;44972.91;5090431;28;20497;-54
2023/10/29 10:18:54;;;;;;;1.00;0.50;;;;;;;-143.84;32.19;44927.19;5092425;28;20964;-53
2023/10/29 10:21:23;;;;;;;0.80;0.40;;;;;;;-143.84;32.33;44948.16;5092113;28;20949;-54
2023/10/29 10:23:53;;;;;;;0.80;0.30;;;;;;;-143.84;32.03;44961.47;5092243;28;20482;-54
2023/10/29 10:26:30;;;;;;;0.80;0.40;;;;;;;-143.84;31.87;44950.06;5092467;28;20439;-54
2023/10/29 10:29:04;;;;;;;0.90;0.50;;;;;;;-143.84;31.91;44940.53;5092250;28;20439;-54
2023/10/29 10:31:33;;;;;;;0.80;0.40;;;;;;;-143.84;31.24;44984.31;5092022;28;20439;-54
2023/10/29 10:34:11;;;;;;;1.20;0.40;;;;;;;-143.84;31.71;44921.50;5094042;28;20550;-54
2023/10/29 10:36:38;;;;;;;1.57;0.70;;;;;;;-143.84;31.68;44946.25;5112494;28;20431;-52
2023/10/29 10:39:07;;;;;;;0.80;0.30;;;;;;;-143.84;31.53;44957.66;5112692;28;20434;-52
2023/10/29 10:41:44;;;;;;;0.80;0.40;;;;;;;-143.84;31.67;44953.88;5112285;28;20516;-52
2023/10/29 10:44:13;;;;;;;1.10;0.50;;;;;;;-143.84;31.76;44951.97;5112044;28;20488;-53
2023/10/29 10:46:47;;;;;;;0.80;0.30;;;;;;;-143.84;31.69;44963.38;5112179;28;20560;-53
2023/10/29 10:49:15;;;;;;;0.80;0.40;;;;;;;-143.84;32.14;44963.38;5112412;28;20434;-52
2023/10/29 10:51:42;;;;;;;1.23;0.70;;;;;;;-143.84;32.10;44950.06;5112073;28;20451;-52
2023/10/29 10:54:11;;;;;;;1.00;0.43;;;;;;;-143.84;33.34;44961.47;5112278;28;20454;-52
2023/10/29 10:56:39;;;;;;;0.80;0.40;;;;;;;-143.84;33.54;44923.41;5112206;28;20447;-53
2023/10/29 10:59:07;;;;;;;0.80;0.40;;;;;;;-143.84;32.38;44944.34;5112074;28;20443;-52
2023/10/29 11:01:35;;;;;;;0.80;0.37;;;;;;;-143.84;32.60;44946.25;5112226;28;20438;-52
2023/10/29 11:04:03;;;;;;;0.90;0.50;;;;;;;-143.84;32.50;44961.47;5112026;28;20504;-52
2023/10/29 11:06:31;;;;;;;0.80;0.40;;;;;;;-143.84;32.49;44972.91;5111956;28;20443;-53
2023/10/29 11:08:59;;;;;;;0.80;0.40;;;;;;;-143.84;32.63;44961.47;5111751;28;20439;-52
2023/10/29 11:11:33;;;;;;;0.90;0.50;;;;;;;-143.84;32.77;44948.16;5111976;28;20435;-52
2023/10/29 11:14:11;;;;;;;0.80;0.40;;;;;;;-143.84;32.41;44957.66;5111686;28;20928;-53
2023/10/29 11:16:50;;;;;;;0.80;0.40;;;;;;;-143.84;31.35;44944.34;5111438;28;20442;-53
2023/10/29 11:19:45;;;;;;;0.80;0.40;;;;;;;-143.84;32.34;44946.25;5111428;28;20431;-53